Mable, Pennsylvania
Current Conditions -  °F | °C
As of 11:15 AM on Wednesday 26 Nov 2014 (Local Time) from KHZL Reporting Station
Moderate Snow Moderate Snow  
Wind Chill: 26°   Ceiling: NA
Heat Index: 32°   Visibility: 0.25mi
Dew Point: 32°   Wind: 7mph
Humidity: 100%   Direction: 340°NNW
Pressure: 30.06"   Gusts: NA
Location:  40.7564°N, 76.3531°W
Report Text: KHZL 261615Z AUTO 34006KT 1/4SM SN 00/00 A3006 RMK AO2 P0002
Loading
Personal Weather Stations






























Interactive Weather Map New forecast layout! Learn more

10-Day Weather Forecast

Advertisements
Track Severe Weather on mobile